Terminal Aerodrome Forecast
Issued by NWS

Home | Current Version | Previous Version | Text Only | Print | Product List | Glossary On
Versions: 1 2 3 4 5 6 7 8 9 10 11 12 13 14 15 16 17 18 19 20 21 22 23 24 25 26 27 28 29 30 31 32
000
FTUS41 KOKX 281933 AAC
TAFGON
TAF AMD
KGON 281933Z 2820/2918 17010KT P6SM SCT015 BKN250
      TEMPO 2820/2822 BKN015
     FM282300 21006KT P6SM VCSH BKN050 BKN250
     FM290200 31004KT P6SM FEW100 BKN250
     FM290400 01004KT 6SM BR SKC
     FM291300 06007KT P6SM SKC
     FM291600 14008KT P6SM FEW050=

USA.gov is the U.S. government's official web portal to all federal, state and local government web resources and services.